Time;durP1;ratioP1;P1;durP2;ratioP2;P2;SDS_P1;SDS_P2;PMS_P1;PMS_P2;Temp;Humidity;BMP_temperature;BMP_pressure;BME280_temperature;BME280_humidity;BME280_pressure;Samples;Min_cycle;Max_cycle;Signal;HPM_P1;HPM_P2
2021/08/28 00:02:34;;;;;;;13.95;10.90;;;25.60;52.50;;;;;;4299076;61;21104;-28
2021/08/28 00:07:34;;;;;;;12.43;10.18;;;25.50;52.40;;;;;;4305904;61;21088;-34
2021/08/28 00:12:35;;;;;;;11.88;10.50;;;25.60;52.40;;;;;;4297126;61;21100;-34
2021/08/28 00:17:39;;;;;;;12.32;9.98;;;25.60;52.40;;;;;;4302983;61;21053;-33
2021/08/28 00:22:40;;;;;;;14.05;10.07;;;25.50;52.30;;;;;;4297179;61;21068;-34
2021/08/28 00:27:42;;;;;;;14.20;10.20;;;25.60;52.30;;;;;;4308026;61;21041;-33
2021/08/28 00:32:43;;;;;;;11.18;9.73;;;25.60;52.30;;;;;;4333026;60;21096;-27
2021/08/28 00:37:43;;;;;;;12.57;10.20;;;25.50;52.20;;;;;;4320207;61;21088;-34
2021/08/28 00:42:51;;;;;;;11.63;9.63;;;25.60;52.30;;;;;;4313727;61;21077;-29
2021/08/28 00:47:56;;;;;;;13.23;10.02;;;25.60;52.30;;;;;;4303341;60;22059;-28
2021/08/28 00:52:57;;;;;;;12.05;9.75;;;25.50;52.20;;;;;;4295410;65;21121;-32
2021/08/28 00:58:02;;;;;;;10.93;9.05;;;25.60;52.20;;;;;;4312034;61;21607;-34
2021/08/28 01:03:04;;;;;;;12.13;9.43;;;25.60;52.20;;;;;;4300270;61;21061;-26
2021/08/28 01:08:23;;;;;;;12.02;9.63;;;25.50;52.10;;;;;;4316205;60;21075;-36
2021/08/28 01:13:29;;;;;;;10.50;9.35;;;25.50;52.10;;;;;;4305970;61;21069;-34
2021/08/28 01:18:30;;;;;;;10.98;9.30;;;25.60;52.20;;;;;;4312269;60;21085;-34
2021/08/28 01:23:34;;;;;;;9.80;8.77;;;25.50;52.10;;;;;;4307050;60;21114;-32
2021/08/28 01:29:06;;;;;;;9.85;8.60;;;25.50;52.10;;;;;;4334245;60;21129;-36
2021/08/28 01:34:07;;;;;;;10.30;8.55;;;25.50;52.00;;;;;;4303684;60;21068;-34
2021/08/28 01:39:10;;;;;;;9.68;8.68;;;25.50;52.00;;;;;;4305302;61;21185;-34
2021/08/28 01:44:13;;;;;;;10.35;8.90;;;25.50;52.00;;;;;;4311759;60;21131;-34
2021/08/28 01:49:15;;;;;;;8.85;7.95;;;25.50;52.00;;;;;;4309445;60;21626;-32
2021/08/28 01:54:16;;;;;;;9.75;8.20;;;25.50;52.00;;;;;;4340570;60;21077;-33
2021/08/28 01:59:17;;;;;;;9.40;8.30;;;25.50;52.10;;;;;;4299329;60;21113;-32
2021/08/28 02:04:17;;;;;;;8.75;7.82;;;25.50;52.00;;;;;;4299408;61;21061;-33
2021/08/28 02:09:45;;;;;;;10.05;7.95;;;25.50;52.00;;;;;;4304815;61;21550;-32
2021/08/28 02:18:27;;;;;;;9.75;8.35;;;25.50;52.00;;;;;;4298517;60;21072;-32
2021/08/28 02:23:46;;;;;;;9.15;8.10;;;25.50;51.90;;;;;;4329656;60;21190;-35
2021/08/28 02:28:54;;;;;;;9.48;8.18;;;25.50;52.00;;;;;;4313849;60;21105;-29
2021/08/28 02:33:56;;;;;;;8.68;7.78;;;25.50;51.90;;;;;;4296042;64;21076;-34
2021/08/28 02:38:59;;;;;;;9.88;8.05;;;25.50;51.90;;;;;;4314839;60;21108;-23
2021/08/28 02:44:06;;;;;;;8.63;7.72;;;25.50;51.90;;;;;;4332385;60;21120;-29
2021/08/28 02:49:07;;;;;;;8.38;7.57;;;25.50;51.90;;;;;;4307980;60;21114;-34
2021/08/28 02:54:15;;;;;;;7.80;6.82;;;25.50;51.90;;;;;;4337769;60;21149;-33
2021/08/28 02:59:17;;;;;;;8.60;7.68;;;25.50;51.90;;;;;;4296765;60;21124;-31
2021/08/28 03:04:22;;;;;;;8.60;6.97;;;25.50;51.90;;;;;;4296090;64;21660;-35
2021/08/28 03:09:24;;;;;;;9.27;8.35;;;25.50;51.90;;;;;;4336351;60;21093;-35
2021/08/28 03:14:27;;;;;;;8.50;7.60;;;25.50;51.90;;;;;;4326076;60;21104;-32
2021/08/28 03:19:28;;;;;;;8.70;7.75;;;25.50;51.90;;;;;;4296188;65;21125;-34
2021/08/28 03:24:31;;;;;;;8.25;7.10;;;25.40;51.90;;;;;;4343843;60;21180;-30
2021/08/28 03:29:33;;;;;;;8.60;7.70;;;25.50;52.00;;;;;;4312062;60;21065;-33
2021/08/28 03:34:36;;;;;;;8.57;7.55;;;25.40;51.90;;;;;;4303073;60;21126;-32
2021/08/28 03:39:38;;;;;;;8.20;7.35;;;25.50;52.00;;;;;;4299752;60;21145;-30
2021/08/28 03:44:40;;;;;;;8.32;7.53;;;25.50;51.90;;;;;;4314523;60;21080;-32
2021/08/28 03:49:41;;;;;;;8.20;7.30;;;25.50;51.90;;;;;;4319518;60;21109;-32
2021/08/28 03:54:42;;;;;;;8.20;7.40;;;25.40;51.90;;;;;;4297470;60;21081;-30
2021/08/28 03:59:43;;;;;;;10.25;7.78;;;25.40;51.90;;;;;;4312686;61;21045;-32
2021/08/28 04:04:44;;;;;;;7.97;7.18;;;25.40;51.90;;;;;;4298835;61;21064;-36
2021/08/28 04:09:44;;;;;;;7.62;6.90;;;25.40;51.90;;;;;;4295761;65;21098;-31
2021/08/28 04:14:45;;;;;;;8.18;6.93;;;25.40;52.00;;;;;;4299884;61;21069;-33
2021/08/28 04:19:46;;;;;;;8.02;7.22;;;25.40;52.00;;;;;;4300973;60;21166;-29
2021/08/28 04:24:47;;;;;;;9.20;7.07;;;25.40;52.00;;;;;;4295627;65;21136;-31
2021/08/28 04:29:48;;;;;;;7.85;7.07;;;25.40;52.00;;;;;;4317160;61;21600;-35
2021/08/28 04:34:49;;;;;;;8.80;6.95;;;25.40;52.10;;;;;;4301381;61;21073;-34
2021/08/28 04:39:52;;;;;;;7.43;6.70;;;25.40;52.10;;;;;;4303015;61;21096;-31
2021/08/28 04:44:54;;;;;;;7.68;6.90;;;25.40;52.20;;;;;;4296221;65;21106;-35
2021/08/28 04:49:55;;;;;;;7.93;7.12;;;25.40;52.30;;;;;;4299457;61;21551;-31
2021/08/28 04:54:56;;;;;;;8.65;6.85;;;25.40;52.30;;;;;;4296384;61;21069;-32
2021/08/28 04:59:56;;;;;;;9.27;6.95;;;25.40;52.30;;;;;;4305993;61;21591;-32
2021/08/28 05:04:57;;;;;;;7.97;6.80;;;25.40;52.30;;;;;;4304679;61;21052;-30
2021/08/28 05:09:58;;;;;;;7.90;7.10;;;25.40;52.30;;;;;;4315162;61;21557;-32
2021/08/28 05:14:59;;;;;;;7.25;6.55;;;25.40;52.30;;;;;;4298993;61;21220;-32
2021/08/28 05:20:03;;;;;;;8.57;7.18;;;25.40;52.40;;;;;;4298046;61;21133;-32
2021/08/28 05:25:04;;;;;;;8.88;7.70;;;25.40;52.30;;;;;;4296930;60;21129;-33
2021/08/28 05:30:07;;;;;;;9.35;7.43;;;25.40;52.30;;;;;;4303710;60;21132;-34
2021/08/28 05:35:09;;;;;;;9.65;7.25;;;25.40;52.30;;;;;;4319795;60;21097;-31
2021/08/28 05:40:13;;;;;;;8.68;7.78;;;25.40;52.30;;;;;;4294994;60;21081;-30
2021/08/28 05:45:14;;;;;;;8.52;7.47;;;25.40;52.30;;;;;;4312994;61;21148;-30
2021/08/28 05:50:15;;;;;;;9.35;7.43;;;25.40;52.30;;;;;;4296385;61;21586;-34
2021/08/28 05:55:16;;;;;;;9.70;7.90;;;25.40;52.30;;;;;;4307110;61;21149;-33
2021/08/28 06:00:17;;;;;;;8.10;7.25;;;25.40;52.30;;;;;;4315739;61;21077;-31
2021/08/28 06:05:18;;;;;;;8.77;7.87;;;25.40;52.30;;;;;;4311656;60;21097;-33
2021/08/28 06:10:19;;;;;;;8.60;7.70;;;25.40;52.30;;;;;;4316746;61;22247;-33
2021/08/28 06:15:20;;;;;;;9.95;8.07;;;25.40;52.30;;;;;;4299449;61;21069;-32
2021/08/28 06:20:21;;;;;;;9.40;8.00;;;25.40;52.30;;;;;;4332161;60;21627;-35
2021/08/28 06:25:22;;;;;;;8.95;8.05;;;25.40;52.40;;;;;;4327660;60;21554;-32
2021/08/28 06:30:26;;;;;;;11.00;8.73;;;25.40;52.30;;;;;;4300328;61;21056;-30
2021/08/28 06:35:27;;;;;;;11.95;8.95;;;25.40;52.30;;;;;;4308058;60;21591;-33
2021/08/28 06:40:28;;;;;;;9.93;8.70;;;25.40;52.30;;;;;;4294841;61;21136;-33
2021/08/28 06:45:28;;;;;;;9.50;8.35;;;25.40;52.30;;;;;;4303486;61;21647;-28
2021/08/28 06:50:29;;;;;;;10.90;8.93;;;25.40;52.40;;;;;;4296121;65;21097;-33
2021/08/28 06:55:30;;;;;;;9.13;8.20;;;25.40;52.40;;;;;;4305512;61;21148;-33
2021/08/28 07:00:31;;;;;;;9.68;8.68;;;25.40;52.50;;;;;;4298174;61;21200;-33
2021/08/28 07:05:32;;;;;;;11.43;8.75;;;25.40;52.50;;;;;;4310266;61;22184;-34
2021/08/28 07:10:33;;;;;;;9.90;8.85;;;25.40;53.10;;;;;;4295710;65;21161;-33
2021/08/28 07:15:34;;;;;;;10.35;9.05;;;25.40;52.50;;;;;;4310005;61;21093;-31
2021/08/28 07:20:39;;;;;;;12.77;9.43;;;25.40;52.50;;;;;;4316588;61;22267;-32
2021/08/28 07:25:40;;;;;;;10.35;8.88;;;25.40;52.50;;;;;;4295927;65;21061;-29
2021/08/28 07:30:41;;;;;;;12.95;8.98;;;25.40;53.20;;;;;;4295444;65;21670;-33
2021/08/28 07:35:42;;;;;;;10.55;9.45;;;25.40;52.50;;;;;;4307910;61;21098;-36
2021/08/28 07:40:43;;;;;;;10.30;9.18;;;25.40;52.50;;;;;;4304453;60;21088;-30
2021/08/28 07:45:44;;;;;;;11.95;10.50;;;25.40;52.50;;;;;;4295929;65;21087;-35
2021/08/28 07:50:45;;;;;;;11.12;9.70;;;25.40;52.50;;;;;;4312749;61;21088;-30
2021/08/28 07:55:46;;;;;;;11.95;9.98;;;25.40;52.50;;;;;;4335578;61;21531;-31
2021/08/28 08:00:49;;;;;;;12.30;11.10;;;25.30;52.40;;;;;;4306480;61;21076;-34
2021/08/28 08:05:50;;;;;;;11.98;10.77;;;25.40;52.60;;;;;;4300548;61;21151;-36
2021/08/28 08:10:50;;;;;;;13.80;11.20;;;25.30;52.50;;;;;;4295475;65;21124;-33
2021/08/28 08:15:51;;;;;;;12.48;11.15;;;25.30;52.50;;;;;;4295309;62;21096;-30
2021/08/28 08:20:52;;;;;;;13.68;10.95;;;25.40;52.60;;;;;;4306190;61;21060;-34
2021/08/28 08:25:53;;;;;;;14.13;11.63;;;25.40;52.60;;;;;;4298780;61;21592;-29
2021/08/28 08:30:54;;;;;;;14.23;11.70;;;25.40;52.60;;;;;;4305773;61;21069;-34
2021/08/28 08:35:55;;;;;;;13.55;11.98;;;25.30;52.50;;;;;;4302382;61;21089;-31
2021/08/28 08:40:57;;;;;;;13.62;11.85;;;25.40;52.60;;;;;;4306906;60;21182;-32
2021/08/28 08:45:59;;;;;;;14.20;12.35;;;25.40;52.70;;;;;;4302831;60;21064;-31
2021/08/28 08:51:01;;;;;;;13.95;12.18;;;25.40;52.60;;;;;;4296444;60;21130;-34
2021/08/28 08:56:04;;;;;;;15.45;12.93;;;25.40;52.60;;;;;;4295922;64;21117;-32
2021/08/28 09:01:06;;;;;;;13.98;12.27;;;25.30;52.50;;;;;;4324840;60;21571;-33
2021/08/28 09:06:07;;;;;;;17.05;13.30;;;25.40;53.20;;;;;;4304025;60;21053;-33
2021/08/28 09:11:30;;;;;;;17.20;13.68;;;25.40;53.20;;;;;;4299382;61;21052;-36
2021/08/28 09:16:32;;;;;;;15.20;13.48;;;25.40;52.60;;;;;;4332374;60;21690;-33
2021/08/28 09:21:35;;;;;;;15.40;13.75;;;25.40;52.60;;;;;;4324201;61;21535;-34
2021/08/28 09:26:41;;;;;;;17.23;14.10;;;25.40;52.60;;;;;;4299184;60;21141;-34
2021/08/28 09:31:45;;;;;;;15.50;13.27;;;25.30;52.60;;;;;;4308282;60;21137;-30
2021/08/28 09:37:09;;;;;;;17.52;14.57;;;25.30;52.60;;;;;;4323844;60;21100;-33
2021/08/28 09:42:20;;;;;;;17.00;14.27;;;25.40;52.60;;;;;;4322751;60;21878;-28
2021/08/28 09:47:23;;;;;;;19.58;15.23;;;25.40;52.70;;;;;;4304058;60;21092;-30
2021/08/28 09:52:28;;;;;;;17.70;15.43;;;25.30;52.60;;;;;;4314631;60;21173;-30
2021/08/28 09:57:31;;;;;;;17.12;15.18;;;25.30;52.60;;;;;;4296002;61;21060;-32
2021/08/28 10:02:32;;;;;;;16.80;15.00;;;25.40;52.60;;;;;;4296013;65;21118;-35
2021/08/28 10:07:32;;;;;;;18.25;15.93;;;25.30;52.60;;;;;;4298526;61;21058;-33
2021/08/28 10:12:36;;;;;;;16.48;14.73;;;25.40;52.70;;;;;;4319169;61;21088;-32
2021/08/28 10:17:40;;;;;;;17.27;15.40;;;25.30;52.60;;;;;;4305965;61;21149;-34
2021/08/28 10:22:43;;;;;;;17.62;15.30;;;25.40;52.60;;;;;;4299154;60;21150;-30
2021/08/28 10:27:45;;;;;;;18.52;16.33;;;25.40;52.60;;;;;;4311788;60;21052;-36
2021/08/28 10:32:47;;;;;;;16.92;15.10;;;25.30;52.60;;;;;;4296506;64;21133;-31
2021/08/28 10:37:50;;;;;;;18.83;15.63;;;25.40;52.70;;;;;;4300739;60;21097;-33
2021/08/28 10:42:57;;;;;;;20.80;15.82;;;25.30;52.60;;;;;;4301298;61;21061;-29
2021/08/28 10:48:01;;;;;;;18.90;16.20;;;25.40;52.70;;;;;;4296422;61;21056;-34
2021/08/28 10:53:03;;;;;;;17.67;15.70;;;25.30;52.60;;;;;;4311713;60;21722;-29
2021/08/28 10:58:37;;;;;;;18.05;16.02;;;25.40;52.70;;;;;;4301919;60;21155;-34
2021/08/28 11:03:39;;;;;;;19.48;17.10;;;25.40;52.90;;;;;;4298396;61;21193;-32
2021/08/28 11:08:56;;;;;;;18.55;16.00;;;25.40;52.70;;;;;;4296232;61;21539;-33
2021/08/28 11:14:13;;;;;;;18.10;15.95;;;25.40;52.70;;;;;;4311762;60;21613;-34
2021/08/28 11:19:48;;;;;;;17.67;15.75;;;25.40;52.70;;;;;;4296257;65;21546;-30
2021/08/28 11:24:57;;;;;;;18.42;16.50;;;25.40;52.80;;;;;;4296938;60;21073;-35
2021/08/28 11:29:57;;;;;;;19.45;16.60;;;25.40;52.70;;;;;;4315202;60;21065;-33
2021/08/28 11:34:59;;;;;;;18.02;16.12;;;25.40;52.70;;;;;;4320732;61;21061;-34
2021/08/28 11:40:23;;;;;;;18.02;16.02;;;25.40;52.70;;;;;;4306589;61;21089;-31
2021/08/28 11:45:36;;;;;;;17.77;15.88;;;25.40;52.70;;;;;;4304330;60;21061;-32
2021/08/28 11:50:38;;;;;;;20.40;17.15;;;25.40;52.70;;;;;;4302318;60;21142;-32
2021/08/28 11:55:39;;;;;;;18.23;16.33;;;25.40;52.70;;;;;;4306786;60;21116;-34
2021/08/28 12:00:43;;;;;;;20.67;17.17;;;25.40;52.70;;;;;;4303866;61;21623;-28
2021/08/28 12:05:44;;;;;;;18.05;16.15;;;25.40;52.70;;;;;;4316041;60;21539;-34
2021/08/28 12:10:47;;;;;;;19.10;17.10;;;25.40;52.70;;;;;;4297899;61;21177;-32
2021/08/28 12:15:48;;;;;;;19.42;16.75;;;25.40;52.70;;;;;;4303092;61;21088;-34
2021/08/28 12:20:49;;;;;;;19.52;16.67;;;25.40;52.70;;;;;;4296891;61;21137;-32
2021/08/28 12:25:52;;;;;;;20.37;18.17;;;25.30;52.60;;;;;;4296950;61;21933;-32
2021/08/28 12:30:54;;;;;;;19.55;17.55;;;25.40;52.70;;;;;;4300082;60;21574;-28
2021/08/28 12:35:55;;;;;;;20.20;17.80;;;25.40;52.70;;;;;;4296119;65;21068;-34
2021/08/28 12:40:56;;;;;;;22.02;17.92;;;25.40;52.70;;;;;;4311479;61;21102;-34
2021/08/28 12:45:59;;;;;;;19.77;17.48;;;25.40;52.80;;;;;;4301971;60;21068;-32
2021/08/28 12:51:09;;;;;;;19.62;17.37;;;25.30;52.70;;;;;;4296127;61;21109;-33
2021/08/28 12:56:10;;;;;;;20.58;18.37;;;25.30;52.70;;;;;;4295956;65;21553;-32
2021/08/28 13:01:13;;;;;;;20.60;18.30;;;25.30;52.70;;;;;;4298576;61;21048;-30
2021/08/28 13:06:23;;;;;;;19.80;17.70;;;25.40;52.80;;;;;;4296240;65;21256;-32
2021/08/28 13:11:26;;;;;;;21.30;18.08;;;25.40;52.80;;;;;;4300046;61;21053;-33
2021/08/28 13:16:26;;;;;;;21.02;18.40;;;25.30;52.70;;;;;;4298043;61;21138;-31
2021/08/28 13:21:41;;;;;;;21.10;17.70;;;25.30;52.70;;;;;;4309950;61;21052;-33
2021/08/28 13:27:07;;;;;;;20.60;18.45;;;25.30;52.70;;;;;;4303806;60;21045;-29
2021/08/28 13:32:13;;;;;;;21.73;18.45;;;25.40;52.80;;;;;;4326449;60;21543;-29
2021/08/28 13:37:15;;;;;;;22.05;18.95;;;25.30;52.70;;;;;;4307378;60;21161;-34
2021/08/28 13:42:22;;;;;;;20.25;18.25;;;25.30;52.80;;;;;;4305786;60;21145;-31
2021/08/28 13:47:25;;;;;;;20.58;18.48;;;25.30;52.80;;;;;;4332295;60;21041;-33
2021/08/28 13:52:26;;;;;;;21.55;18.67;;;25.40;52.80;;;;;;4296003;60;21535;-32
2021/08/28 13:57:28;;;;;;;20.73;18.52;;;25.30;52.80;;;;;;4321154;61;21093;-34
2021/08/28 14:02:28;;;;;;;22.05;18.70;;;25.30;52.80;;;;;;4296764;65;21124;-34
2021/08/28 14:07:30;;;;;;;20.92;18.25;;;25.30;52.80;;;;;;4301713;61;21060;-30
2021/08/28 14:12:30;;;;;;;20.95;18.65;;;25.30;52.80;;;;;;4295437;65;21592;-33
2021/08/28 14:17:32;;;;;;;20.30;18.17;;;25.30;52.80;;;;;;4295987;61;21048;-27
2021/08/28 14:22:33;;;;;;;20.67;18.27;;;25.30;52.80;;;;;;4296196;65;22551;-29
2021/08/28 14:27:34;;;;;;;21.67;19.37;;;25.30;52.80;;;;;;4296168;60;21067;-34
2021/08/28 14:32:35;;;;;;;19.85;17.65;;;25.30;52.80;;;;;;4306960;61;21555;-33
2021/08/28 14:37:38;;;;;;;22.05;18.45;;;25.30;52.80;;;;;;4300074;61;21085;-32
2021/08/28 14:42:39;;;;;;;20.58;17.77;;;25.30;52.80;;;;;;4351409;60;21049;-29
2021/08/28 14:47:40;;;;;;;21.67;18.83;;;25.30;52.80;;;;;;4306644;61;21158;-33
2021/08/28 14:52:40;;;;;;;20.88;18.67;;;25.30;52.80;;;;;;4299735;61;21069;-31
2021/08/28 14:57:41;;;;;;;21.62;19.17;;;25.30;52.80;;;;;;4313222;61;21053;-34
2021/08/28 15:02:42;;;;;;;20.58;18.25;;;25.30;52.80;;;;;;4301030;61;21115;-31
2021/08/28 15:07:43;;;;;;;21.67;19.37;;;25.30;52.80;;;;;;4296888;60;21065;-30
2021/08/28 15:12:44;;;;;;;20.33;18.23;;;25.30;52.80;;;;;;4303770;61;21076;-30
2021/08/28 15:17:45;;;;;;;20.35;18.15;;;25.30;52.70;;;;;;4308016;61;21570;-31
2021/08/28 15:22:46;;;;;;;20.30;18.10;;;25.30;52.70;;;;;;4296240;61;21064;-29
2021/08/28 15:27:48;;;;;;;19.67;17.65;;;25.30;52.70;;;;;;4314950;61;21073;-33
2021/08/28 15:32:49;;;;;;;19.33;17.08;;;25.30;52.70;;;;;;4306431;61;21192;-34
2021/08/28 15:37:50;;;;;;;20.08;18.00;;;25.30;52.70;;;;;;4295752;65;21104;-32
2021/08/28 15:42:52;;;;;;;20.52;18.42;;;25.30;52.80;;;;;;4296134;65;21060;-32
2021/08/28 15:47:53;;;;;;;19.48;17.40;;;25.30;52.70;;;;;;4296459;65;22338;-31
2021/08/28 15:52:55;;;;;;;20.27;18.17;;;25.30;52.60;;;;;;4306198;60;21049;-27
2021/08/28 15:57:56;;;;;;;19.50;17.50;;;25.30;52.70;;;;;;4299585;61;21065;-30
2021/08/28 16:02:58;;;;;;;21.37;19.12;;;25.30;52.70;;;;;;4324953;61;21052;-31
2021/08/28 16:07:59;;;;;;;20.50;18.37;;;25.20;52.60;;;;;;4316289;61;21209;-31
2021/08/28 16:13:01;;;;;;;21.05;18.90;;;25.30;52.70;;;;;;4328693;60;21515;-31
2021/08/28 16:18:04;;;;;;;20.60;18.40;;;25.30;52.70;;;;;;4313399;60;21072;-30
2021/08/28 16:23:08;;;;;;;20.52;18.20;;;25.30;52.60;;;;;;4313675;60;21165;-33
2021/08/28 16:28:09;;;;;;;20.08;18.05;;;25.30;52.70;;;;;;4326595;60;21069;-33
2021/08/28 16:33:12;;;;;;;21.77;17.90;;;25.30;52.70;;;;;;4295579;65;21084;-32
2021/08/28 16:38:13;;;;;;;20.73;18.50;;;25.30;52.70;;;;;;4296183;61;21096;-31
2021/08/28 16:43:14;;;;;;;18.80;16.80;;;25.30;53.00;;;;;;4298875;60;21061;-28
2021/08/28 16:48:15;;;;;;;20.80;18.17;;;25.30;52.70;;;;;;4324228;61;21467;-34
2021/08/28 16:53:16;;;;;;;19.48;17.48;;;25.30;52.70;;;;;;4303832;60;21064;-34
2021/08/28 16:58:18;;;;;;;19.98;17.87;;;25.30;52.60;;;;;;4303983;60;21069;-33
2021/08/28 17:03:18;;;;;;;19.25;17.08;;;25.30;52.60;;;;;;4295964;65;21498;-33
2021/08/28 17:08:19;;;;;;;19.62;17.40;;;25.30;52.60;;;;;;4306424;61;21064;-31
2021/08/28 17:13:20;;;;;;;19.00;16.90;;;25.30;52.60;;;;;;4299280;61;21064;-30
2021/08/28 17:18:22;;;;;;;19.50;17.40;;;25.30;52.60;;;;;;4296794;61;21065;-33
2021/08/28 17:23:27;;;;;;;20.25;18.12;;;25.20;52.60;;;;;;4300773;61;21099;-34
2021/08/28 17:28:28;;;;;;;19.50;17.50;;;25.30;52.70;;;;;;4296309;64;21651;-33
2021/08/28 17:33:32;;;;;;;18.80;16.80;;;25.30;52.70;;;;;;4298072;61;21069;-32
2021/08/28 17:38:35;;;;;;;18.37;15.90;;;25.30;52.60;;;;;;4295659;61;21093;-34
2021/08/28 17:43:36;;;;;;;19.80;17.70;;;25.20;52.60;;;;;;4296717;61;21077;-28
2021/08/28 17:48:37;;;;;;;19.65;17.58;;;25.30;52.60;;;;;;4298645;61;21074;-32
2021/08/28 17:53:38;;;;;;;18.42;16.52;;;25.30;52.70;;;;;;4310026;61;21069;-31
2021/08/28 17:58:40;;;;;;;19.90;16.92;;;25.30;52.70;;;;;;4307547;61;21080;-32
2021/08/28 18:03:41;;;;;;;18.60;16.60;;;25.30;52.70;;;;;;4305907;61;21120;-33
2021/08/28 18:08:42;;;;;;;18.90;17.00;;;25.20;52.60;;;;;;4335410;61;21551;-30
2021/08/28 18:13:43;;;;;;;18.35;16.37;;;25.30;52.70;;;;;;4304732;60;21138;-32
2021/08/28 18:18:44;;;;;;;18.12;16.12;;;25.30;52.70;;;;;;4312595;61;21600;-30
2021/08/28 18:23:45;;;;;;;19.75;16.55;;;25.20;52.60;;;;;;4315976;61;21118;-31
2021/08/28 18:28:46;;;;;;;19.08;16.85;;;25.30;52.70;;;;;;4306910;61;21068;-30
2021/08/28 18:33:47;;;;;;;18.10;16.20;;;25.20;52.60;;;;;;4295443;65;21159;-31
2021/08/28 18:38:48;;;;;;;17.05;15.30;;;25.20;52.60;;;;;;4308830;61;21156;-32
2021/08/28 18:43:48;;;;;;;18.23;16.23;;;25.30;52.60;;;;;;4307699;61;21079;-30
2021/08/28 18:48:49;;;;;;;17.20;15.43;;;25.30;52.70;;;;;;4311975;61;21172;-32
2021/08/28 18:53:50;;;;;;;17.73;15.93;;;25.20;52.50;;;;;;4316879;61;21090;-30
2021/08/28 18:58:51;;;;;;;17.30;15.50;;;25.20;52.50;;;;;;4328036;61;21551;-29
2021/08/28 19:03:52;;;;;;;18.00;15.63;;;25.20;52.50;;;;;;4301438;61;21065;-28
2021/08/28 19:08:55;;;;;;;17.40;15.70;;;25.20;52.50;;;;;;4343007;61;21683;-34
2021/08/28 19:13:56;;;;;;;16.40;14.60;;;25.20;52.50;;;;;;4303894;60;21080;-33
2021/08/28 19:18:57;;;;;;;16.55;14.85;;;25.20;52.50;;;;;;4299271;61;21519;-31
2021/08/28 19:23:58;;;;;;;17.42;15.43;;;25.20;52.50;;;;;;4346957;61;21083;-28
2021/08/28 19:28:59;;;;;;;17.08;14.90;;;25.20;52.50;;;;;;4325671;61;21351;-31
2021/08/28 19:33:59;;;;;;;16.40;14.70;;;25.20;52.50;;;;;;4334323;61;21100;-26
2021/08/28 19:39:00;;;;;;;16.70;15.00;;;25.20;52.50;;;;;;4335574;61;21131;-31
2021/08/28 19:44:01;;;;;;;16.52;14.77;;;25.20;52.50;;;;;;4321886;61;21144;-28
2021/08/28 19:49:05;;;;;;;15.88;14.30;;;25.20;52.60;;;;;;4301370;61;21069;-30
2021/08/28 19:54:06;;;;;;;15.85;14.18;;;25.20;52.50;;;;;;4323626;61;21069;-32
2021/08/28 19:59:06;;;;;;;15.90;14.15;;;25.20;52.50;;;;;;4320465;61;21073;-32
2021/08/28 20:04:07;;;;;;;15.82;14.23;;;25.20;52.50;;;;;;4312241;61;21049;-31
2021/08/28 20:09:11;;;;;;;15.75;13.90;;;25.20;52.50;;;;;;4305640;61;21061;-31
2021/08/28 20:14:13;;;;;;;15.80;13.82;;;25.20;52.50;;;;;;4301409;61;21108;-31
2021/08/28 20:19:14;;;;;;;15.10;13.60;;;25.20;52.50;;;;;;4295808;65;21403;-31
2021/08/28 20:24:14;;;;;;;15.65;14.02;;;25.20;52.50;;;;;;4305390;61;21096;-33
2021/08/28 20:29:17;;;;;;;15.43;13.75;;;25.20;52.50;;;;;;4295699;65;21785;-30
2021/08/28 20:34:18;;;;;;;14.60;12.98;;;25.20;52.50;;;;;;4295825;65;21144;-34
2021/08/28 20:39:19;;;;;;;14.65;13.00;;;25.20;52.50;;;;;;4306858;61;21574;-33
2021/08/28 20:44:20;;;;;;;14.85;13.35;;;25.20;52.50;;;;;;4295720;65;21084;-33
2021/08/28 20:49:21;;;;;;;14.10;12.68;;;25.20;52.50;;;;;;4312489;61;21523;-32
2021/08/28 20:54:22;;;;;;;13.68;12.27;;;25.10;52.40;;;;;;4305676;61;21106;-32
2021/08/28 20:59:23;;;;;;;14.20;12.80;;;25.20;52.50;;;;;;4333673;61;21118;-31
2021/08/28 21:04:24;;;;;;;14.35;12.85;;;25.20;52.50;;;;;;4309812;61;21069;-32
2021/08/28 21:09:25;;;;;;;13.10;11.80;;;25.20;52.50;;;;;;4351748;60;21073;-34
2021/08/28 21:14:28;;;;;;;13.82;12.48;;;25.20;52.50;;;;;;4354751;61;21126;-29
2021/08/28 21:19:29;;;;;;;13.98;12.57;;;25.20;52.50;;;;;;4311293;61;21137;-33
2021/08/28 21:24:31;;;;;;;13.82;12.43;;;25.20;52.50;;;;;;4295924;61;21128;-28
2021/08/28 21:29:32;;;;;;;13.40;12.10;;;25.20;52.50;;;;;;4333723;61;21228;-32
2021/08/28 21:34:33;;;;;;;13.35;12.02;;;25.20;52.50;;;;;;4305474;61;21149;-32
2021/08/28 21:39:35;;;;;;;13.90;12.48;;;25.20;52.50;;;;;;4302241;61;21081;-34
2021/08/28 21:44:39;;;;;;;14.13;12.27;;;25.10;52.50;;;;;;4296071;65;21575;-33
2021/08/28 21:49:40;;;;;;;13.20;11.80;;;25.10;52.50;;;;;;4295933;65;21064;-33
2021/08/28 21:54:41;;;;;;;12.23;10.65;;;25.10;52.50;;;;;;4320420;61;21603;-32
2021/08/28 21:59:42;;;;;;;12.55;11.25;;;25.10;52.50;;;;;;4295602;65;21052;-33
2021/08/28 22:04:42;;;;;;;12.77;11.48;;;25.10;52.50;;;;;;4296497;65;21525;-33
2021/08/28 22:09:43;;;;;;;12.18;10.88;;;25.10;52.60;;;;;;4297199;61;21089;-31
2021/08/28 22:14:44;;;;;;;12.00;10.85;;;25.10;52.50;;;;;;4302246;61;21080;-30
2021/08/28 22:19:45;;;;;;;12.60;11.30;;;25.10;52.50;;;;;;4307064;61;21545;-28
2021/08/28 22:24:47;;;;;;;11.55;10.45;;;25.10;52.60;;;;;;4311356;61;21044;-31
2021/08/28 22:29:47;;;;;;;11.98;10.70;;;25.10;52.60;;;;;;4322993;60;21108;-28
2021/08/28 22:34:48;;;;;;;11.75;10.63;;;25.10;52.60;;;;;;4348366;61;21515;-32
2021/08/28 22:39:52;;;;;;;11.18;10.15;;;25.10;52.60;;;;;;4303653;60;21069;-31
2021/08/28 22:44:53;;;;;;;11.45;9.75;;;25.10;52.60;;;;;;4299859;60;21157;-33
2021/08/28 22:49:54;;;;;;;12.45;11.25;;;25.10;52.60;;;;;;4342668;61;21070;-31
2021/08/28 22:54:55;;;;;;;12.30;11.10;;;25.10;52.60;;;;;;4307491;61;21157;-34
2021/08/28 22:59:56;;;;;;;11.05;9.95;;;25.10;52.60;;;;;;4380095;60;21064;-33
2021/08/28 23:04:56;;;;;;;11.55;10.27;;;25.10;52.60;;;;;;4301438;61;21061;-31
2021/08/28 23:09:57;;;;;;;10.38;9.30;;;25.10;52.60;;;;;;4301240;61;21523;-35
2021/08/28 23:14:58;;;;;;;11.35;10.25;;;25.10;52.60;;;;;;4298402;61;21069;-34
2021/08/28 23:19:59;;;;;;;11.30;10.20;;;25.10;52.70;;;;;;4302814;61;21559;-33
2021/08/28 23:25:00;;;;;;;10.93;9.80;;;25.10;52.70;;;;;;4297184;61;21618;-32
2021/08/28 23:30:02;;;;;;;10.70;9.60;;;25.10;52.70;;;;;;4303653;61;21052;-35
2021/08/28 23:35:03;;;;;;;11.68;10.48;;;25.10;52.70;;;;;;4323421;60;21132;-30
2021/08/28 23:40:06;;;;;;;10.20;9.20;;;25.10;52.70;;;;;;4295176;60;21112;-35
2021/08/28 23:45:11;;;;;;;10.95;9.88;;;25.10;52.70;;;;;;4328637;60;21120;-31
2021/08/28 23:50:14;;;;;;;9.90;8.85;;;25.10;52.70;;;;;;4308217;60;21097;-30
2021/08/28 23:55:15;;;;;;;10.02;9.02;;;25.10;52.70;;;;;;4305815;61;21149;-28
